Decoded Metar for RKSI (CHAJANG NI in KOREA) (IATA:N/A) | Meteo·Mobile Aviation Weather
aviador You're here:

RKSI Decoded Metar

CHAJANG NI in KOREA
Report Time2019-10-19 21:30:00
UTC Time2019-10-19 21:57:49
Flight Rules mvfr MVFR
Wind070° at 03 kt
W.Decomp.*RWY 15: 0.9 kt HW 2.9 kt LCW
RWY 16: 0.4 kt HW 3 kt LCW
Visibility6000 m
Phenomena:N/A
Clouds:N/A
Expected CloudBase > 800 ft AGL from Temp-Dew spread
CeilingNone
Temp13°C (ISA -2)
Dew Point11°C (88% RH)
AAT12.3°C
QNH1022 hPa
Density Alt-338 ft
Elevation23 ft
Report Wrong Elevation
Raw Report
RKSI 192130Z 07003KT 6000 NSC 13/11 Q1022 NOSIG=

Extra information for RKSI:More info

Metar Taf Metar & Taf Last 4 Metars F.Rules Stats Wind Profile Meteogram Temp Stats Airport Information Weather charts Add Link Nearby VenuesMetar ALERT Operation Metar Decoded Social comments